| time (UTC) | temp C | wind direction | speed KPH | gust KPH | rain 1hr cm | rain 24hr cm | rain mn cm | humidity % | barometer mb |
| 20260508121803 | 20 | 204 | 14.5 | 30.6 | 0.00 | 0.03 | 0.03 | 55 | 1007.8 |
| 20260508120903 | 20 | 194 | 12.9 | 27.4 | 0.00 | 0.03 | 0.03 | 57 | 1007.9 |
| 20260508120004 | 19 | 204 | 12.9 | 24.1 | 0.00 | 0.03 | 0.03 | 58 | 1007.9 |
| 20260508115403 | 18 | 201 | 12.9 | 24.1 | 0.00 | 0.03 | 0.03 | 57 | 1008.2 |
| 20260508114503 | 20 | 212 | 14.5 | 27.4 | 0.00 | 0.03 | 0.03 | 57 | 1008.2 |
| 20260508113603 | 19 | 223 | 12.9 | 25.7 | 0.00 | 0.03 | 0.03 | 57 | 1008.3 |
| 20260508112703 | 18 | 201 | 14.5 | 33.8 | 0.00 | 0.03 | 0.03 | 58 | 1008.4 |
| 20260508111803 | 18 | 207 | 17.7 | 35.4 | 0.00 | 0.03 | 0.03 | 57 | 1008.4 |
| 20260508110903 | 19 | 216 | 12.9 | 29.0 | 0.00 | 0.03 | 0.03 | 58 | 1008.6 |
| 20260508110003 | 19 | 202 | 14.5 | 29.0 | 0.00 | 0.03 | 0.03 | 59 | 1008.5 |
| 20260508105403 | 18 | 209 | 12.9 | 27.4 | 0.00 | 0.03 | 0.03 | 61 | 1008.7 |
| 20260508104504 | 17 | 213 | 11.3 | 24.1 | 0.00 | 0.03 | 0.03 | 61 | 1008.6 |
| 20260508103813 | 17 | 208 | 12.9 | 24.1 | 0.00 | 0.03 | 0.03 | 62 | 1008.9 |
| 20260508102703 | 17 | 192 | 9.7 | 24.1 | 0.00 | 0.03 | 0.03 | 64 | 1008.7 |
| 20260508101803 | 17 | 201 | 6.4 | 22.5 | 0.00 | 0.03 | 0.03 | 66 | 1008.8 |
| 20260508101113 | 17 | 189 | 9.7 | 22.5 | 0.00 | 0.03 | 0.03 | 66 | 1008.8 |
| 20260508100004 | 16 | 177 | 9.7 | 17.7 | 0.00 | 0.03 | 0.03 | 67 | 1008.8 |
| 20260508095403 | 16 | 193 | 8.0 | 14.5 | 0.00 | 0.03 | 0.03 | 70 | 1008.8 |
| 20260508094503 | 16 | 230 | 6.4 | 12.9 | 0.00 | 0.03 | 0.03 | 72 | 1009.3 |
| 20260508093603 | 16 | 197 | 11.3 | 30.6 | 0.00 | 0.03 | 0.03 | 72 | 1009.2 |
| 20260508092703 | 16 | 204 | 12.9 | 29.0 | 0.00 | 0.03 | 0.03 | 71 | 1009.3 |
| 20260508092013 | 15 | 200 | 6.4 | 17.7 | 0.00 | 0.03 | 0.03 | 75 | 1009.2 |
| 20260508090903 | 15 | 191 | 6.4 | 16.1 | 0.00 | 0.03 | 0.03 | 75 | 1009.4 |
| 20260508090003 | 15 | 216 | 4.8 | 9.7 | 0.00 | 0.03 | 0.03 | 79 | 1009.3 |
| 20260508085404 | 15 | 223 | 4.8 | 9.7 | 0.00 | 0.03 | 0.03 | 79 | 1009.5 |
| 20260508084503 | 15 | 203 | 1.6 | 6.4 | 0.00 | 0.03 | 0.03 | 80 | 1009.6 |
| 20260508083603 | 14 | 197 | 1.6 | 6.4 | 0.00 | 0.03 | 0.03 | 80 | 1009.5 |
| 20260508082703 | 14 | 163 | 3.2 | 6.4 | 0.00 | 0.03 | 0.03 | 80 | 1009.5 |
| 20260508081803 | 14 | 178 | 3.2 | 4.8 | 0.00 | 0.03 | 0.03 | 81 | 1009.4 |
| 20260508080904 | 13 | 191 | 3.2 | 9.7 | 0.03 | 0.03 | 0.03 | 82 | 1009.6 |
| 20260508080003 | 13 | 197 | 4.8 | 9.7 | 0.03 | 0.03 | 0.03 | 82 | 1009.5 |
| 20260508075403 | 13 | 193 | 4.8 | 11.3 | 0.03 | 0.03 | 0.03 | 83 | 1009.4 |
| 20260508074503 | 13 | 198 | 3.2 | 6.4 | 0.03 | 0.03 | 0.03 | 84 | 1009.3 |
| 20260508073603 | 13 | 197 | 1.6 | 4.8 | 0.03 | 0.03 | 0.03 | 85 | 1009.3 |
| 20260508072913 | 13 | 164 | 1.6 | 4.8 | 0.03 | 0.03 | 0.03 | 85 | 1009.3 |
| 20260508071803 | 12 | 222 | 0.0 | 1.6 | 0.03 | 0.03 | 0.03 | 85 | 1009.4 |
| 20260508070903 | 12 | 38 | 0.0 | 1.6 | 0.00 | 0.00 | 0.00 | 85 | 1009.3 |
| 20260508070004 | 12 | 44 | 0.0 | 3.2 | 0.00 | 0.00 | 0.00 | 85 | 1009.3 |
| 20260508065403 | 12 | 275 | 0.0 | 1.6 | 0.00 | 0.00 | 0.00 | 84 | 1009.1 |
| 20260508064503 | 12 | 276 | 0.0 | 1.6 | 0.00 | 0.00 | 0.00 | 84 | 1009.1 |
| 20260508063603 | 12 | 291 | 0.0 | 1.6 | 0.00 | 0.00 | 0.00 | 83 | 1009.3 |
| 20260508062703 | 12 | 79 | 0.0 | 3.2 | 0.00 | 0.00 | 0.00 | 83 | 1009.1 |
| 20260508061803 | 12 | 355 | 0.0 | 1.6 | 0.00 | 0.00 | 0.00 | 83 | 1009.1 |
| 20260508060903 | 12 | 351 | 0.0 | 1.6 | 0.00 | 0.00 | 0.00 | 86 | 1009.0 |
| 20260508060004 | 12 | 312 | 0.0 | 1.6 | 0.00 | 0.00 | 0.00 | 85 | 1008.7 |
| 20260508055403 | 12 | 0 | 0.0 | 0.0 | 0.00 | 0.00 | 0.00 | 85 | 1008.8 |
| 20260508054503 | 12 | 0 | 0.0 | 0.0 | 0.00 | 0.00 | 0.00 | 85 | 1008.9 |
| 20260508053603 | 12 | 321 | 1.6 | 3.2 | 0.00 | 0.00 | 0.00 | 84 | 1008.6 |
| 20260508052703 | 12 | 335 | 0.0 | 3.2 | 0.00 | 0.00 | 0.00 | 85 | 1008.5 |
| 20260508052014 | 12 | 45 | 1.6 | 4.8 | 0.00 | 0.00 | 0.00 | 84 | 1008.2 |
| 20260508050903 | 12 | 8 | 0.0 | 3.2 | 0.00 | 0.00 | 0.00 | 84 | 1008.5 |
| 20260508050003 | 12 | 248 | 0.0 | 1.6 | 0.00 | 0.00 | 0.00 | 83 | 1008.7 |
| 20260508045403 | 12 | 247 | 0.0 | 1.6 | 0.00 | 0.00 | 0.00 | 84 | 1008.8 |
| 20260508044504 | 12 | 233 | 0.0 | 3.2 | 0.00 | 0.00 | 0.00 | 84 | 1008.4 |
| 20260508043603 | 12 | 213 | 1.6 | 3.2 | 0.00 | 0.00 | 0.00 | 84 | 1008.6 |
| 20260508042703 | 12 | 214 | 0.0 | 1.6 | 0.00 | 0.00 | 0.00 | 83 | 1008.3 |
| 20260508041803 | 12 | 272 | 0.0 | 1.6 | 0.00 | 0.00 | 0.00 | 83 | 1008.3 |
| 20260508040903 | 12 | 321 | 0.0 | 1.6 | 0.00 | 0.00 | 0.00 | 83 | 1008.3 |
| 20260508040004 | 12 | 302 | 1.6 | 3.2 | 0.00 | 0.00 | 0.00 | 82 | 1008.4 |
| 20260508035403 | 12 | 286 | 0.0 | 1.6 | 0.00 | 0.00 | 0.00 | 83 | 1008.4 |
| 20260508034713 | 12 | 285 | 0.0 | 1.6 | 0.00 | 0.00 | 0.00 | 83 | 1008.5 |
| 20260508033603 | 12 | 0 | 0.0 | 0.0 | 0.00 | 0.00 | 0.00 | 84 | 1008.2 |
| 20260508032703 | 12 | 0 | 0.0 | 0.0 | 0.00 | 0.00 | 0.00 | 82 | 1008.3 |
| 20260508031803 | 12 | 0 | 0.0 | 0.0 | 0.00 | 0.00 | 0.00 | 82 | 1008.5 |
| 20260508030903 | 12 | 0 | 0.0 | 0.0 | 0.00 | 0.00 | 0.00 | 82 | 1008.5 |
| 20260508030003 | 12 | 0 | 0.0 | 0.0 | 0.00 | 0.00 | 0.00 | 83 | 1008.6 |
| 20260508025404 | 12 | 0 | 0.0 | 0.0 | 0.00 | 0.00 | 0.00 | 84 | 1008.5 |
| 20260508024713 | 12 | 0 | 0.0 | 0.0 | 0.00 | 0.00 | 0.00 | 83 | 1008.8 |
| 20260508023603 | 12 | 0 | 0.0 | 0.0 | 0.00 | 0.00 | 0.00 | 83 | 1008.7 |
| 20260508022703 | 12 | 0 | 0.0 | 0.0 | 0.00 | 0.00 | 0.00 | 83 | 1008.7 |
| 20260508021804 | 12 | 0 | 0.0 | 0.0 | 0.00 | 0.00 | 0.00 | 83 | 1008.9 |
| 20260508020903 | 12 | 287 | 0.0 | 3.2 | 0.00 | 0.00 | 0.00 | 82 | 1009.0 |
| 20260508020003 | 12 | 311 | 0.0 | 3.2 | 0.00 | 0.00 | 0.00 | 82 | 1008.9 |
| 20260508015403 | 12 | 296 | 0.0 | 1.6 | 0.00 | 0.00 | 0.00 | 82 | 1008.7 |
| 20260508014714 | 12 | 277 | 0.0 | 1.6 | 0.00 | 0.00 | 0.00 | 82 | 1008.9 |
| 20260508013603 | 12 | 0 | 0.0 | 0.0 | 0.00 | 0.00 | 0.00 | 82 | 1009.4 |
| 20260508012703 | 12 | 0 | 0.0 | 0.0 | 0.00 | 0.00 | 0.00 | 82 | 1009.1 |
| 20260508011803 | 12 | 274 | 0.0 | 1.6 | 0.00 | 0.00 | 0.00 | 82 | 1009.2 |
| 20260508010903 | 12 | 279 | 0.0 | 1.6 | 0.00 | 0.00 | 0.00 | 82 | 1009.4 |
| 20260508010003 | 12 | 278 | 0.0 | 1.6 | 0.00 | 0.00 | 0.00 | 80 | 1009.1 |
| 20260508005403 | 12 | 277 | 0.0 | 1.6 | 0.00 | 0.00 | 0.00 | 79 | 1009.3 |
| 20260508004714 | 12 | 290 | 1.6 | 3.2 | 0.00 | 0.00 | 0.00 | 81 | 1009.5 |
| 20260508003603 | 12 | 359 | 0.0 | 3.2 | 0.00 | 0.00 | 0.00 | 81 | 1009.4 |
| 20260508002914 | 13 | 310 | 0.0 | 3.2 | 0.00 | 0.00 | 0.00 | 80 | 1009.3 |
| 20260508001803 | 13 | 306 | 1.6 | 3.2 | 0.00 | 0.00 | 0.00 | 79 | 1009.4 |
| 20260508000903 | 13 | 267 | 1.6 | 4.8 | 0.00 | 0.00 | 0.00 | 79 | 1009.6 |
| 20260508000214 | 13 | 236 | 0.0 | 1.6 | 0.00 | 0.00 | 0.00 | 78 | 1009.5 |
| 20260507235403 | 13 | 225 | 0.0 | 1.6 | 0.00 | 0.00 | 0.00 | 78 | 1009.6 |
| 20260507234503 | 13 | 220 | 1.6 | 3.2 | 0.00 | 0.00 | 0.00 | 78 | 1009.6 |
| 20260507233603 | 13 | 266 | 0.0 | 1.6 | 0.00 | 0.00 | 0.00 | 79 | 1009.7 |
| 20260507232703 | 13 | 278 | 1.6 | 3.2 | 0.00 | 0.00 | 0.00 | 78 | 1009.5 |
| 20260507231803 | 13 | 285 | 1.6 | 1.6 | 0.00 | 0.00 | 0.00 | 77 | 1009.4 |
| 20260507231113 | 13 | 271 | 1.6 | 3.2 | 0.00 | 0.00 | 0.00 | 76 | 1009.4 |
| 20260507230220 | 13 | 277 | 1.6 | 3.2 | 0.00 | 0.00 | 0.00 | 76 | 1009.7 |
| 20260507225404 | 13 | 319 | 1.6 | 3.2 | 0.00 | 0.00 | 0.00 | 76 | 1009.5 |
| 20260507224713 | 13 | 308 | 1.6 | 3.2 | 0.00 | 0.00 | 0.00 | 76 | 1009.5 |
| 20260507223603 | 13 | 304 | 1.6 | 3.2 | 0.00 | 0.00 | 0.00 | 75 | 1010.0 |
| 20260507222703 | 14 | 290 | 1.6 | 3.2 | 0.00 | 0.00 | 0.00 | 76 | 1010.0 |
| 20260507221803 | 14 | 315 | 1.6 | 4.8 | 0.00 | 0.00 | 0.00 | 75 | 1010.0 |
| 20260507220903 | 14 | 323 | 3.2 | 4.8 | 0.00 | 0.00 | 0.00 | 74 | 1010.3 |
| 20260507220003 | 14 | 322 | 4.8 | 9.7 | 0.00 | 0.00 | 0.00 | 74 | 1010.0 |
| 20260507215403 | 14 | 317 | 4.8 | 9.7 | 0.00 | 0.00 | 0.00 | 73 | 1010.4 |
| 20260507214503 | 14 | 313 | 3.2 | 6.4 | 0.00 | 0.00 | 0.00 | 73 | 1010.5 |
| 20260507213603 | 14 | 306 | 3.2 | 4.8 | 0.00 | 0.00 | 0.00 | 74 | 1010.4 |
| 20260507212703 | 14 | 312 | 3.2 | 9.7 | 0.00 | 0.00 | 0.00 | 74 | 1010.5 |
| 20260507211803 | 14 | 313 | 3.2 | 6.4 | 0.00 | 0.00 | 0.00 | 74 | 1010.4 |
| 20260507210904 | 14 | 318 | 4.8 | 9.7 | 0.00 | 0.00 | 0.00 | 74 | 1010.6 |
| 20260507210003 | 14 | 327 | 3.2 | 9.7 | 0.00 | 0.00 | 0.00 | 73 | 1010.4 |
| 20260507205403 | 14 | 330 | 3.2 | 9.7 | 0.00 | 0.00 | 0.00 | 73 | 1010.5 |
| 20260507204504 | 15 | 324 | 3.2 | 9.7 | 0.00 | 0.00 | 0.00 | 73 | 1010.1 |
| 20260507203603 | 15 | 338 | 3.2 | 6.4 | 0.00 | 0.00 | 0.00 | 73 | 1010.3 |
| 20260507202703 | 15 | 319 | 3.2 | 9.7 | 0.00 | 0.00 | 0.00 | 73 | 1010.0 |
| 20260507201803 | 15 | 298 | 3.2 | 6.4 | 0.00 | 0.00 | 0.00 | 73 | 1010.0 |
| 20260507200903 | 15 | 300 | 4.8 | 9.7 | 0.00 | 0.00 | 0.00 | 73 | 1009.7 |
| 20260507200004 | 15 | 302 | 3.2 | 6.4 | 0.00 | 0.00 | 0.00 | 73 | 1009.8 |
| 20260507195615 | 15 | 307 | 4.8 | 9.7 | 0.00 | 0.00 | 0.00 | 72 | 1009.8 |
| 20260507194503 | 15 | 315 | 4.8 | 11.3 | 0.00 | 0.00 | 0.00 | 72 | 1009.5 |
| 20260507193604 | 15 | 313 | 4.8 | 11.3 | 0.00 | 0.00 | 0.00 | 71 | 1009.5 |
| 20260507192703 | 15 | 317 | 4.8 | 12.9 | 0.00 | 0.00 | 0.00 | 71 | 1009.5 |
| 20260507192014 | 15 | 321 | 4.8 | 12.9 | 0.00 | 0.00 | 0.00 | 70 | 1009.6 |
| 20260507190903 | 16 | 326 | 6.4 | 12.9 | 0.00 | 0.00 | 0.00 | 70 | 1009.3 |
| 20260507190005 | 16 | 338 | 8.0 | 17.7 | 0.00 | 0.00 | 0.00 | 69 | 1009.5 |
| 20260507185403 | 16 | 341 | 8.0 | 17.7 | 0.00 | 0.00 | 0.00 | 69 | 1009.3 |
| 20260507184713 | 16 | 323 | 6.4 | 17.7 | 0.00 | 0.00 | 0.00 | 69 | 1009.2 |
| 20260507183603 | 16 | 316 | 11.3 | 20.9 | 0.00 | 0.00 | 0.00 | 68 | 1009.3 |
| 20260507182703 | 16 | 311 | 8.0 | 17.7 | 0.00 | 0.00 | 0.00 | 68 | 1009.0 |
| 20260507181803 | 16 | 311 | 8.0 | 17.7 | 0.00 | 0.00 | 0.00 | 68 | 1009.2 |
| 20260507180903 | 17 | 321 | 9.7 | 22.5 | 0.00 | 0.00 | 0.00 | 67 | 1008.9 |
| 20260507180003 | 17 | 324 | 9.7 | 22.5 | 0.00 | 0.00 | 0.00 | 66 | 1008.9 |
| 20260507175403 | 17 | 332 | 11.3 | 24.1 | 0.00 | 0.00 | 0.00 | 65 | 1008.8 |
| 20260507174713 | 17 | 341 | 9.7 | 24.1 | 0.00 | 0.00 | 0.00 | 64 | 1008.8 |
| 20260507173603 | 17 | 335 | 9.7 | 22.5 | 0.00 | 0.00 | 0.00 | 62 | 1008.9 |
| 20260507172703 | 17 | 334 | 9.7 | 16.1 | 0.00 | 0.00 | 0.00 | 63 | 1009.1 |
| 20260507171804 | 17 | 335 | 9.7 | 33.8 | 0.00 | 0.00 | 0.00 | 64 | 1009.0 |
| 20260507170903 | 17 | 346 | 14.5 | 33.8 | 0.00 | 0.00 | 0.00 | 64 | 1008.9 |
| 20260507170003 | 18 | 324 | 16.1 | 29.0 | 0.00 | 0.00 | 0.00 | 64 | 1009.1 |
| 20260507165403 | 18 | 326 | 11.3 | 24.1 | 0.00 | 0.00 | 0.00 | 63 | 1008.8 |
| 20260507164503 | 19 | 344 | 9.7 | 25.7 | 0.00 | 0.00 | 0.00 | 60 | 1008.8 |
| 20260507163604 | 20 | 324 | 11.3 | 29.0 | 0.00 | 0.00 | 0.00 | 59 | 1008.8 |
| 20260507162703 | 19 | 321 | 11.3 | 25.7 | 0.00 | 0.00 | 0.00 | 60 | 1008.7 |
| 20260507161803 | 20 | 342 | 9.7 | 24.1 | 0.00 | 0.00 | 0.00 | 60 | 1008.4 |
| 20260507160904 | 18 | 328 | 9.7 | 20.9 | 0.00 | 0.00 | 0.00 | 64 | 1008.6 |
| 20260507160003 | 18 | 321 | 12.9 | 25.7 | 0.00 | 0.00 | 0.00 | 64 | 1008.6 |
| 20260507155613 | 18 | 321 | 14.5 | 25.7 | 0.00 | 0.00 | 0.00 | 63 | 1008.7 |
| 20260507154503 | 19 | 345 | 9.7 | 22.5 | 0.00 | 0.00 | 0.00 | 60 | 1008.4 |
| 20260507153604 | 19 | 325 | 9.7 | 22.5 | 0.00 | 0.00 | 0.00 | 60 | 1008.4 |
| 20260507152703 | 18 | 360 | 11.3 | 25.7 | 0.00 | 0.00 | 0.00 | 62 | 1008.7 |
| 20260507151803 | 19 | 338 | 11.3 | 24.1 | 0.00 | 0.00 | 0.00 | 60 | 1008.5 |
| 20260507150903 | 19 | 330 | 11.3 | 20.9 | 0.00 | 0.00 | 0.00 | 59 | 1008.7 |
| 20260507150213 | 19 | 342 | 11.3 | 24.1 | 0.00 | 0.00 | 0.00 | 59 | 1008.6 |
| 20260507145403 | 19 | 335 | 11.3 | 25.7 | 0.00 | 0.00 | 0.00 | 59 | 1008.9 |
| 20260507144503 | 19 | 1 | 12.9 | 25.7 | 0.00 | 0.00 | 0.00 | 60 | 1008.9 |
| 20260507143603 | 20 | 329 | 11.3 | 29.0 | 0.00 | 0.00 | 0.00 | 59 | 1009.0 |
| 20260507142703 | 21 | 322 | 12.9 | 27.4 | 0.00 | 0.00 | 0.00 | 59 | 1009.0 |
| 20260507142014 | 21 | 319 | 11.3 | 27.4 | 0.00 | 0.00 | 0.00 | 60 | 1009.0 |
| 20260507140903 | 21 | 313 | 9.7 | 20.9 | 0.00 | 0.00 | 0.00 | 56 | 1008.9 |
| 20260507140003 | 21 | 320 | 11.3 | 25.7 | 0.00 | 0.00 | 0.00 | 57 | 1009.0 |
| 20260507135403 | 21 | 310 | 11.3 | 24.1 | 0.00 | 0.00 | 0.00 | 57 | 1009.0 |
| 20260507134503 | 21 | 301 | 11.3 | 22.5 | 0.00 | 0.00 | 0.00 | 56 | 1009.2 |
| 20260507133813 | 20 | 316 | 12.9 | 33.8 | 0.00 | 0.00 | 0.00 | 57 | 1009.2 |
| 20260507132703 | 20 | 332 | 14.5 | 30.6 | 0.00 | 0.00 | 0.00 | 58 | 1009.3 |
| 20260507131803 | 20 | 315 | 9.7 | 25.7 | 0.00 | 0.00 | 0.00 | 59 | 1009.3 |
| 20260507130903 | 19 | 304 | 14.5 | 25.7 | 0.00 | 0.00 | 0.00 | 60 | 1009.4 |
| 20260507130004 | 20 | 308 | 9.7 | 22.5 | 0.00 | 0.00 | 0.00 | 59 | 1009.3 |
| 20260507125403 | 20 | 317 | 9.7 | 16.1 | 0.00 | 0.00 | 0.00 | 59 | 1009.2 |
| 20260507124503 | 20 | 314 | 6.4 | 16.1 | 0.00 | 0.00 | 0.00 | 61 | 1009.5 |
| 20260507123603 | 20 | 331 | 8.0 | 20.9 | 0.00 | 0.00 | 0.00 | 58 | 1009.3 |
| 20260507122705 | 19 | 335 | 8.0 | 17.7 | 0.00 | 0.00 | 0.00 | 62 | 1009.6 |